createdAt,value
2023-06-17T00:00:10.788Z,17.64
2023-06-17T00:02:38.987Z,17.57
2023-06-17T00:05:07.981Z,17.52
2023-06-17T00:07:36.026Z,17.46
2023-06-17T00:10:04.199Z,17.43
2023-06-17T00:12:34.415Z,17.45
2023-06-17T00:15:05.409Z,17.47
2023-06-17T00:17:33.871Z,17.42
2023-06-17T00:20:15.297Z,17.39
2023-06-17T00:22:45.847Z,17.36
2023-06-17T00:25:14.791Z,17.28
2023-06-17T00:27:42.882Z,17.26
2023-06-17T00:30:11.241Z,17.23
2023-06-17T00:32:39.444Z,17.23
2023-06-17T00:35:08.162Z,17.16
2023-06-17T00:37:36.293Z,17.16
2023-06-17T00:40:10.229Z,17.14
2023-06-17T00:42:38.899Z,17.13
2023-06-17T00:45:07.667Z,17.12
2023-06-17T00:47:35.746Z,17.14
2023-06-17T00:50:04.039Z,17.09
2023-06-17T00:52:42.158Z,17.07
2023-06-17T00:55:11.893Z,17.03
2023-06-17T00:57:41.034Z,17.01
2023-06-17T01:00:12.980Z,16.95
2023-06-17T01:02:46.744Z,16.92
2023-06-17T01:05:17.313Z,16.87
2023-06-17T01:07:53.038Z,16.85
2023-06-17T01:10:42.731Z,16.80
2023-06-17T01:13:10.875Z,16.77
2023-06-17T01:15:38.923Z,16.75
2023-06-17T01:18:07.474Z,16.76
2023-06-17T01:20:35.653Z,16.72
2023-06-17T01:23:03.762Z,16.72
2023-06-17T01:25:32.710Z,16.69
2023-06-17T01:28:04.304Z,16.68
2023-06-17T01:30:32.442Z,16.66
2023-06-17T01:33:00.921Z,16.61
2023-06-17T01:35:35.395Z,16.58
2023-06-17T01:38:18.317Z,16.56
2023-06-17T01:40:46.418Z,16.57
2023-06-17T01:43:14.999Z,16.54
2023-06-17T01:45:43.134Z,16.53
2023-06-17T01:48:11.407Z,16.54
2023-06-17T01:50:39.596Z,16.49
2023-06-17T01:53:07.808Z,16.49
2023-06-17T01:55:35.816Z,16.51
2023-06-17T01:58:03.848Z,16.48
2023-06-17T02:00:32.035Z,16.47
2023-06-17T02:03:00.307Z,16.44
2023-06-17T02:05:28.463Z,16.39
2023-06-17T02:07:58.458Z,16.31
2023-06-17T02:10:26.657Z,16.19
2023-06-17T02:12:54.726Z,16.07
2023-06-17T02:15:22.795Z,16.03
2023-06-17T02:17:50.981Z,16.00
2023-06-17T02:20:19.231Z,15.95
2023-06-17T02:22:47.668Z,15.93
2023-06-17T02:25:15.782Z,15.91
2023-06-17T02:27:43.955Z,15.88
2023-06-17T02:30:12.646Z,15.90
2023-06-17T02:32:40.697Z,15.89
2023-06-17T02:35:09.669Z,15.88
2023-06-17T02:37:38.646Z,15.88
2023-06-17T02:40:10.651Z,15.89
2023-06-17T02:42:39.095Z,15.85
2023-06-17T02:45:08.434Z,15.82
2023-06-17T02:47:36.639Z,15.80
2023-06-17T02:50:04.936Z,15.83
2023-06-17T02:52:33.226Z,15.84
2023-06-17T02:55:01.292Z,15.81
2023-06-17T02:57:29.326Z,15.74
2023-06-17T02:59:57.342Z,15.74
2023-06-17T03:02:25.514Z,15.72
2023-06-17T03:04:56.367Z,15.72
2023-06-17T03:07:26.937Z,15.72
2023-06-17T03:09:55.001Z,15.69
2023-06-17T03:12:23.035Z,15.66
2023-06-17T03:14:51.056Z,15.63
2023-06-17T03:17:19.452Z,15.55
2023-06-17T03:19:48.662Z,15.53
2023-06-17T03:22:16.695Z,15.53
2023-06-17T03:24:44.722Z,15.54
2023-06-17T03:27:13.709Z,15.55
2023-06-17T03:29:42.485Z,15.49
2023-06-17T03:32:10.561Z,15.50
2023-06-17T03:34:38.657Z,15.47
2023-06-17T03:37:07.321Z,15.50
2023-06-17T03:39:35.456Z,15.48
2023-06-17T03:42:03.540Z,15.44
2023-06-17T03:44:31.571Z,15.44
2023-06-17T03:46:59.902Z,15.40
2023-06-17T03:49:28.060Z,15.34
2023-06-17T03:51:56.149Z,15.34
2023-06-17T03:54:24.232Z,15.31
2023-06-17T03:56:52.205Z,15.35
2023-06-17T03:59:20.282Z,15.35
2023-06-17T04:01:48.354Z,15.38
2023-06-17T04:04:16.578Z,15.39
2023-06-17T04:06:44.720Z,15.36
2023-06-17T04:09:12.698Z,15.34
2023-06-17T04:11:40.892Z,15.33
2023-06-17T04:14:09.242Z,15.30
2023-06-17T04:16:38.061Z,15.30
2023-06-17T04:19:06.275Z,15.27
2023-06-17T04:21:34.442Z,15.29
2023-06-17T04:24:02.778Z,15.28
2023-06-17T04:26:30.843Z,15.28
2023-06-17T04:28:58.843Z,15.34
2023-06-17T04:31:27.656Z,15.39
2023-06-17T04:33:58.860Z,15.39
2023-06-17T04:36:27.096Z,15.44
2023-06-17T04:38:56.410Z,15.46
2023-06-17T04:41:24.567Z,15.51
2023-06-17T04:43:53.844Z,15.54
2023-06-17T04:46:23.313Z,15.57
2023-06-17T04:48:53.086Z,15.63
2023-06-17T04:51:21.728Z,15.67
2023-06-17T04:53:49.931Z,15.68
2023-06-17T04:56:18.140Z,15.74
2023-06-17T04:58:46.202Z,15.76
2023-06-17T05:01:14.761Z,15.79
2023-06-17T05:03:42.929Z,15.81
2023-06-17T05:06:11.163Z,15.85
2023-06-17T05:08:39.257Z,15.90
2023-06-17T05:11:07.625Z,15.97
2023-06-17T05:13:35.642Z,16.04
2023-06-17T05:16:03.743Z,16.09
2023-06-17T05:18:31.841Z,16.13
2023-06-17T05:20:59.949Z,16.18
2023-06-17T05:23:28.019Z,16.20
2023-06-17T05:25:56.087Z,16.28
2023-06-17T05:28:24.255Z,16.31
2023-06-17T05:30:52.257Z,16.38
2023-06-17T05:33:20.380Z,16.42
2023-06-17T05:35:48.563Z,16.49
2023-06-17T05:38:16.603Z,16.55
2023-06-17T05:40:44.591Z,16.62
2023-06-17T05:43:12.649Z,16.64
2023-06-17T05:45:40.793Z,16.72
2023-06-17T05:48:08.892Z,16.76
2023-06-17T05:50:36.967Z,16.86
2023-06-17T05:53:05.185Z,16.91
2023-06-17T05:55:33.220Z,16.98
2023-06-17T05:58:01.342Z,17.07
2023-06-17T06:00:29.615Z,17.15
2023-06-17T06:02:57.804Z,17.19
2023-06-17T06:05:25.949Z,17.25
2023-06-17T06:07:53.981Z,17.29
2023-06-17T06:10:23.743Z,17.36
2023-06-17T06:12:53.004Z,17.42
2023-06-17T06:15:21.058Z,17.49
2023-06-17T06:17:49.220Z,17.54
2023-06-17T06:20:17.536Z,17.60
2023-06-17T06:22:45.709Z,17.65
2023-06-17T06:25:14.509Z,17.73
2023-06-17T06:27:42.689Z,17.79
2023-06-17T06:30:11.142Z,17.85
2023-06-17T06:32:39.460Z,17.91
2023-06-17T06:35:07.924Z,17.98
2023-06-17T06:37:36.254Z,18.06
2023-06-17T06:40:07.849Z,18.14
2023-06-17T06:42:36.028Z,18.25
2023-06-17T06:45:04.212Z,18.39
2023-06-17T06:47:32.488Z,18.60
2023-06-17T06:50:00.732Z,18.68
2023-06-17T06:52:29.005Z,18.79
2023-06-17T06:54:57.129Z,18.90
2023-06-17T06:57:25.256Z,18.95
2023-06-17T06:59:53.336Z,19.05
2023-06-17T07:02:21.500Z,19.09
2023-06-17T07:04:50.515Z,19.21
2023-06-17T07:07:18.556Z,19.34
2023-06-17T07:09:46.703Z,19.40
2023-06-17T07:12:14.880Z,19.50
2023-06-17T07:14:42.986Z,19.61
2023-06-17T07:17:11.168Z,19.68
2023-06-17T07:19:39.304Z,19.81
2023-06-17T07:22:07.621Z,20.00
2023-06-17T07:24:35.834Z,20.13
2023-06-17T07:27:04.169Z,20.29
2023-06-17T07:29:32.750Z,20.30
2023-06-17T07:32:00.949Z,20.51
2023-06-17T07:34:29.175Z,20.64
2023-06-17T07:36:57.327Z,20.82
2023-06-17T07:39:25.457Z,20.95
2023-06-17T07:41:53.426Z,21.10
2023-06-17T07:44:21.676Z,21.17
2023-06-17T07:46:49.811Z,21.26
2023-06-17T07:49:18.087Z,21.29
2023-06-17T07:51:46.148Z,21.26
2023-06-17T07:54:14.148Z,21.34
2023-06-17T07:56:42.326Z,21.47
2023-06-17T07:59:10.509Z,21.63
2023-06-17T08:01:39.719Z,21.80
2023-06-17T08:04:07.948Z,21.80
2023-06-17T08:06:36.427Z,21.76
2023-06-17T08:09:05.524Z,21.95
2023-06-17T08:11:33.538Z,22.10
2023-06-17T08:14:01.580Z,22.08
2023-06-17T08:16:29.697Z,22.30
2023-06-17T08:18:57.815Z,22.47
2023-06-17T08:21:25.879Z,22.63
2023-06-17T08:23:54.010Z,22.83
2023-06-17T08:26:22.036Z,22.93
2023-06-17T08:28:50.348Z,23.05
2023-06-17T08:31:19.249Z,23.25
2023-06-17T08:33:47.271Z,23.30
2023-06-17T08:36:15.326Z,23.43
2023-06-17T08:38:43.315Z,23.49
2023-06-17T08:41:11.335Z,23.57
2023-06-17T08:43:39.543Z,23.70
2023-06-17T08:46:07.567Z,23.65
2023-06-17T08:48:35.707Z,23.78
2023-06-17T08:51:03.864Z,23.89
2023-06-17T08:53:32.525Z,23.90
2023-06-17T08:56:00.629Z,23.82
2023-06-17T08:58:29.298Z,23.85
2023-06-17T09:01:00.141Z,23.96
2023-06-17T09:03:28.390Z,24.11
2023-06-17T09:05:56.766Z,24.08
2023-06-17T09:08:25.209Z,24.12
2023-06-17T09:10:53.423Z,24.31
2023-06-17T09:13:21.725Z,24.39
2023-06-17T09:15:50.078Z,24.33
2023-06-17T09:18:19.219Z,24.31
2023-06-17T10:55:08.539Z,27.67
2023-06-17T10:57:39.726Z,27.57
2023-06-17T11:00:10.863Z,27.63
2023-06-17T11:02:40.026Z,27.83
2023-06-17T11:05:09.620Z,27.93
2023-06-17T11:07:38.199Z,28.05
2023-06-17T11:10:07.512Z,28.17
2023-06-17T11:12:39.633Z,28.31
2023-06-17T11:15:11.369Z,28.39
2023-06-17T11:17:39.805Z,28.46
2023-06-17T11:20:09.386Z,28.48
2023-06-17T11:22:41.484Z,28.53
2023-06-17T11:25:11.281Z,28.68
2023-06-17T11:27:41.156Z,28.81
2023-06-17T11:30:10.226Z,28.95
2023-06-17T11:32:38.759Z,29.02
2023-06-17T11:35:07.216Z,29.16
2023-06-17T11:37:35.232Z,29.31
2023-06-17T11:40:03.455Z,29.44
2023-06-17T11:42:31.541Z,29.64
2023-06-17T11:44:59.752Z,29.81
2023-06-17T11:47:35.160Z,29.86
2023-06-17T11:50:03.891Z,30.00
2023-06-17T11:52:32.023Z,30.13
2023-06-17T11:57:28.822Z,30.27
2023-06-17T12:00:07.691Z,30.40
2023-06-17T12:02:37.335Z,30.50
2023-06-17T12:05:05.697Z,30.69
2023-06-17T12:07:43.256Z,30.82
2023-06-17T12:10:13.745Z,30.95
2023-06-17T12:12:42.700Z,31.02
2023-06-17T12:17:43.436Z,31.09
2023-06-17T12:20:16.122Z,31.12
2023-06-17T12:22:45.350Z,31.29
2023-06-17T12:25:16.582Z,31.37
2023-06-17T12:27:47.497Z,31.37
2023-06-17T12:30:16.219Z,31.01
2023-06-17T12:32:45.340Z,30.84
2023-06-17T12:35:14.229Z,30.97
2023-06-17T12:37:43.294Z,31.19
2023-06-17T12:40:11.736Z,31.35
2023-06-17T12:42:39.895Z,31.46
2023-06-17T12:45:08.680Z,31.45
2023-06-17T12:47:36.927Z,31.51
2023-06-17T12:50:06.484Z,31.59
2023-06-17T12:52:34.926Z,31.72
2023-06-17T12:57:28.961Z,31.71
2023-06-17T12:59:57.321Z,31.81
2023-06-17T13:02:25.324Z,31.88
2023-06-17T13:04:53.555Z,31.88
2023-06-17T13:07:22.477Z,31.86
2023-06-17T13:09:50.657Z,31.96
2023-06-17T13:12:19.242Z,32.02
2023-06-17T13:14:49.567Z,32.11
2023-06-17T13:17:18.541Z,32.00
2023-06-17T13:19:47.016Z,32.06
2023-06-17T13:22:15.197Z,32.02
2023-06-17T13:24:43.494Z,31.98
2023-06-17T13:27:11.832Z,32.16
2023-06-17T13:29:39.840Z,32.04
2023-06-17T13:32:08.547Z,31.94
2023-06-17T13:34:36.702Z,31.90
2023-06-17T13:37:05.149Z,31.80
2023-06-17T13:39:36.116Z,31.81
2023-06-17T13:42:07.466Z,31.66
2023-06-17T13:44:36.103Z,31.64
2023-06-17T13:47:04.207Z,31.68
2023-06-17T13:49:34.042Z,31.54
2023-06-17T13:52:03.776Z,31.55
2023-06-17T13:54:32.074Z,31.51
2023-06-17T13:57:00.361Z,31.46
2023-06-17T13:59:28.641Z,31.35
2023-06-17T14:01:56.835Z,31.19
2023-06-17T14:04:25.233Z,31.02
2023-06-17T14:06:54.234Z,30.78
2023-06-17T14:09:23.429Z,30.59
2023-06-17T14:11:52.887Z,30.30
2023-06-17T14:14:20.931Z,30.08
2023-06-17T14:19:20.318Z,29.71
2023-06-17T14:22:07.431Z,29.57
2023-06-17T14:24:38.986Z,29.43
2023-06-17T14:27:34.364Z,29.22
2023-06-17T14:30:02.398Z,29.09
2023-06-17T14:32:30.700Z,28.97
2023-06-17T14:34:59.278Z,28.96
2023-06-17T14:37:28.588Z,28.86
2023-06-17T14:39:56.718Z,28.80
2023-06-17T14:42:24.855Z,28.78
2023-06-17T14:44:52.869Z,28.67
2023-06-17T14:47:22.073Z,28.57
2023-06-17T14:49:50.490Z,28.47
2023-06-17T14:52:18.635Z,28.40
2023-06-17T14:54:46.686Z,28.30
2023-06-17T14:57:15.011Z,28.14
2023-06-17T14:59:43.547Z,28.04
2023-06-17T15:02:14.595Z,28.01
2023-06-17T15:04:42.697Z,27.90
2023-06-17T15:07:10.852Z,27.84
2023-06-17T15:09:42.013Z,27.77
2023-06-17T15:12:14.119Z,27.69
2023-06-17T15:14:43.123Z,27.64
2023-06-17T15:17:11.197Z,27.59
2023-06-17T15:19:39.513Z,27.54
2023-06-17T15:22:08.034Z,27.49
2023-06-17T15:24:37.007Z,27.45
2023-06-17T15:27:05.435Z,27.41
2023-06-17T15:29:33.529Z,27.35
2023-06-17T15:32:02.213Z,27.20
2023-06-17T15:34:30.256Z,27.04
2023-06-17T15:36:58.280Z,26.94
2023-06-17T15:39:27.962Z,26.90
2023-06-17T15:41:56.200Z,26.86
2023-06-17T15:44:24.473Z,26.81
2023-06-17T15:46:52.928Z,26.78
2023-06-17T15:49:20.988Z,26.75
2023-06-17T15:51:49.244Z,26.75
2023-06-17T15:54:17.377Z,26.74
2023-06-17T15:56:48.458Z,26.70
2023-06-17T15:59:17.166Z,26.70
2023-06-17T16:01:45.414Z,26.71
2023-06-17T16:04:42.961Z,26.70
2023-06-17T16:07:12.250Z,26.68
2023-06-17T16:09:52.293Z,26.66
2023-06-17T16:12:20.567Z,26.61
2023-06-17T16:14:49.019Z,26.57
2023-06-17T16:17:17.261Z,26.54
2023-06-17T16:19:45.433Z,26.51
2023-06-17T16:22:14.469Z,26.51
2023-06-17T16:24:43.099Z,26.51
2023-06-17T16:27:13.058Z,26.50
2023-06-17T16:29:41.256Z,26.45
2023-06-17T16:32:09.632Z,26.45
2023-06-17T16:34:37.712Z,26.44
2023-06-17T16:37:06.012Z,26.45
2023-06-17T16:39:34.586Z,26.46
2023-06-17T16:42:06.626Z,26.45
2023-06-17T16:44:35.532Z,26.41
2023-06-17T16:47:03.679Z,26.36
2023-06-17T16:49:31.975Z,26.35
2023-06-17T16:52:00.304Z,26.33
2023-06-17T16:54:28.380Z,26.32
2023-06-17T16:56:56.396Z,26.30
2023-06-17T16:59:25.057Z,26.28
2023-06-17T17:01:53.949Z,26.29
2023-06-17T17:04:22.285Z,26.30
2023-06-17T17:06:50.525Z,26.33
2023-06-17T17:09:25.215Z,26.33
2023-06-17T17:11:53.400Z,26.32
2023-06-17T17:14:21.472Z,26.30
2023-06-17T17:16:49.821Z,26.26
2023-06-17T17:19:18.657Z,26.26
2023-06-17T17:21:47.877Z,26.24
2023-06-17T17:24:15.998Z,26.24
2023-06-17T17:26:44.359Z,26.21
2023-06-17T17:29:12.864Z,26.21
2023-06-17T17:31:41.358Z,26.19
2023-06-17T17:34:09.436Z,26.19
2023-06-17T17:36:38.636Z,26.18
2023-06-17T17:39:18.395Z,26.17
2023-06-17T17:41:46.533Z,26.13
2023-06-17T17:44:14.703Z,26.07
2023-06-17T17:46:42.928Z,26.09
2023-06-17T17:49:11.112Z,26.08
2023-06-17T17:51:39.188Z,26.02
2023-06-17T17:54:07.533Z,25.98
2023-06-17T17:56:35.943Z,25.95
2023-06-17T17:59:04.158Z,25.90
2023-06-17T18:01:32.200Z,25.86
2023-06-17T18:04:01.049Z,25.80
2023-06-17T18:06:31.755Z,25.76
2023-06-17T18:09:00.131Z,25.70
2023-06-17T18:11:28.784Z,25.66
2023-06-17T18:13:57.185Z,25.63
2023-06-17T18:16:25.584Z,25.58
2023-06-17T18:18:53.856Z,25.53
2023-06-17T18:21:21.942Z,25.49
2023-06-17T18:23:50.170Z,25.45
2023-06-17T18:26:18.300Z,25.48
2023-06-17T18:28:46.387Z,25.49
2023-06-17T18:31:14.892Z,25.51
2023-06-17T18:33:43.420Z,25.49
2023-06-17T18:36:11.647Z,25.48
2023-06-17T18:38:39.882Z,25.48
2023-06-17T18:41:08.164Z,25.46
2023-06-17T18:43:36.309Z,25.42
2023-06-17T18:48:54.924Z,25.39
2023-06-17T18:51:22.957Z,25.30
2023-06-17T18:53:51.013Z,25.26
2023-06-17T18:56:19.095Z,25.20
2023-06-17T18:58:47.096Z,25.19
2023-06-17T19:01:15.560Z,25.16
2023-06-17T19:03:43.819Z,25.11
2023-06-17T19:06:11.895Z,25.08
2023-06-17T19:08:39.999Z,25.07
2023-06-17T19:11:08.620Z,25.02
2023-06-17T19:13:36.650Z,24.92
2023-06-17T19:16:05.710Z,24.85
2023-06-17T19:18:33.898Z,24.75
2023-06-17T19:21:01.956Z,24.70
2023-06-17T19:23:30.135Z,24.61
2023-06-17T19:25:58.252Z,24.62
2023-06-17T19:28:26.512Z,24.56
2023-06-17T19:30:54.610Z,24.50
2023-06-17T19:33:23.698Z,24.40
2023-06-17T19:35:52.461Z,24.33
2023-06-17T19:38:21.019Z,24.26
2023-06-17T19:40:49.293Z,24.25
2023-06-17T19:44:07.282Z,24.16
2023-06-17T19:46:35.617Z,24.08
2023-06-17T19:49:03.930Z,23.95
2023-06-17T19:51:32.325Z,23.86
2023-06-17T19:54:00.605Z,23.76
2023-06-17T19:56:29.284Z,23.65
2023-06-17T19:58:58.070Z,23.54
2023-06-17T20:04:52.476Z,23.39
2023-06-17T20:07:35.366Z,23.31
2023-06-17T20:10:03.656Z,23.22
2023-06-17T20:12:31.773Z,23.13
2023-06-17T20:14:59.989Z,23.01
2023-06-17T20:17:45.203Z,22.94
2023-06-17T20:20:15.205Z,22.86
2023-06-17T20:23:26.509Z,22.81
2023-06-17T20:29:20.793Z,22.60
2023-06-17T20:31:48.925Z,22.51
2023-06-17T20:34:44.705Z,22.45
2023-06-17T20:37:12.842Z,22.35
2023-06-17T20:39:40.945Z,22.29
2023-06-17T20:42:09.472Z,22.22
2023-06-17T20:44:37.605Z,22.16
2023-06-17T20:47:06.380Z,22.18
2023-06-17T20:49:34.487Z,22.18
2023-06-17T20:52:02.845Z,22.22
2023-06-17T20:54:30.796Z,22.22
2023-06-17T20:56:58.981Z,22.19
2023-06-17T20:59:27.171Z,22.16
2023-06-17T21:01:55.302Z,22.02
2023-06-17T21:04:23.397Z,21.93
2023-06-17T21:06:51.501Z,21.85
2023-06-17T21:09:19.529Z,21.76
2023-06-17T21:11:47.742Z,21.71
2023-06-17T21:14:16.175Z,21.67
2023-06-17T21:16:44.327Z,21.63
2023-06-17T21:19:12.428Z,21.59
2023-06-17T21:21:40.535Z,21.53
2023-06-17T21:24:08.631Z,21.48
2023-06-17T21:26:36.776Z,21.42
2023-06-17T21:29:04.882Z,21.36
2023-06-17T21:31:32.984Z,21.34
2023-06-17T21:34:00.980Z,21.36
2023-06-17T21:36:29.046Z,21.35
2023-06-17T21:38:57.052Z,21.27
2023-06-17T21:41:25.139Z,21.20
2023-06-17T21:43:53.684Z,21.10
2023-06-17T21:46:24.968Z,21.03
2023-06-17T21:48:53.413Z,20.95
2023-06-17T21:51:21.620Z,20.88
2023-06-17T21:53:49.598Z,20.79
2023-06-17T21:56:17.751Z,20.69
2023-06-17T21:58:45.821Z,20.62
2023-06-17T22:01:13.906Z,20.55
2023-06-17T22:03:45.274Z,20.45
2023-06-17T22:06:13.641Z,20.39
2023-06-17T22:08:43.934Z,20.34
2023-06-17T22:11:15.576Z,20.27
2023-06-17T22:13:43.808Z,20.17
2023-06-17T22:16:14.084Z,20.13
2023-06-17T22:18:42.228Z,20.11
2023-06-17T22:21:10.563Z,20.07
2023-06-17T22:23:38.650Z,20.04
2023-06-17T22:26:06.792Z,19.97
2023-06-17T22:28:34.846Z,19.93
2023-06-17T22:31:03.064Z,19.92
2023-06-17T22:33:31.170Z,19.91
2023-06-17T22:35:59.276Z,19.89
2023-06-17T22:38:27.275Z,19.88
2023-06-17T22:40:55.369Z,19.82
2023-06-17T22:43:23.549Z,19.80
2023-06-17T22:45:51.721Z,19.80
2023-06-17T22:48:19.810Z,19.80
2023-06-17T22:50:48.441Z,19.78
2023-06-17T22:53:16.539Z,19.76
2023-06-17T22:55:44.699Z,19.74
2023-06-17T22:58:12.815Z,19.70
2023-06-17T23:00:41.246Z,19.67
2023-06-17T23:03:09.692Z,19.64
2023-06-17T23:05:37.843Z,19.60
2023-06-17T23:08:06.096Z,19.59
2023-06-17T23:10:34.254Z,19.57
2023-06-17T23:13:02.534Z,19.57
2023-06-17T23:15:30.665Z,19.55
2023-06-17T23:17:58.943Z,19.50
2023-06-17T23:20:27.080Z,19.49
2023-06-17T23:22:55.337Z,19.47
2023-06-17T23:25:23.530Z,19.42
2023-06-17T23:27:51.654Z,19.42
2023-06-17T23:30:20.198Z,19.40
2023-06-17T23:32:49.250Z,19.37
2023-06-17T23:35:17.413Z,19.38
2023-06-17T23:37:45.475Z,19.35
2023-06-17T23:40:13.787Z,19.33
2023-06-17T23:42:42.068Z,19.31
2023-06-17T23:45:10.760Z,19.29
2023-06-17T23:47:38.827Z,19.24
2023-06-17T23:50:07.281Z,19.21
2023-06-17T23:52:35.392Z,19.18
2023-06-17T23:55:03.495Z,19.14
2023-06-17T23:57:31.650Z,19.09
2023-06-17T23:59:59.709Z,19.10
